createdAt,value
2023-11-26T00:00:14.891Z,18.75
2023-11-26T00:02:43.612Z,19.00
2023-11-26T00:05:12.302Z,17.25
2023-11-26T00:07:40.985Z,18.25
2023-11-26T00:10:11.410Z,14.25
2023-11-26T00:12:39.974Z,19.00
2023-11-26T00:15:10.951Z,14.50
2023-11-26T00:17:40.112Z,13.25
2023-11-26T00:20:09.797Z,14.75
2023-11-26T00:22:38.473Z,12.50
2023-11-26T00:25:07.670Z,16.00
2023-11-26T00:27:36.686Z,16.75
2023-11-26T00:30:06.885Z,15.75
2023-11-26T00:32:36.173Z,17.00
2023-11-26T00:35:05.354Z,18.25
2023-11-26T00:37:35.107Z,14.50
2023-11-26T00:40:03.800Z,15.75
2023-11-26T00:42:32.358Z,17.75
2023-11-26T00:45:01.002Z,17.25
2023-11-26T00:47:30.249Z,18.25
2023-11-26T00:50:03.367Z,15.50
2023-11-26T00:52:34.279Z,15.00
2023-11-26T00:55:03.189Z,13.50
2023-11-26T00:57:31.832Z,13.25
2023-11-26T01:00:00.378Z,11.00
2023-11-26T01:02:31.964Z,9.50
2023-11-26T01:05:00.780Z,11.75
2023-11-26T01:07:32.597Z,11.50
2023-11-26T01:10:01.909Z,11.50
2023-11-26T01:12:30.535Z,10.75
2023-11-26T01:14:59.148Z,10.00
2023-11-26T01:17:27.837Z,13.00
2023-11-26T01:19:56.455Z,13.00
2023-11-26T01:22:26.791Z,13.25
2023-11-26T01:24:55.369Z,13.00
2023-11-26T01:27:23.912Z,10.00
2023-11-26T01:29:52.552Z,11.75
2023-11-26T01:32:21.320Z,10.00
2023-11-26T01:34:50.131Z,12.00
2023-11-26T01:37:18.886Z,9.50
2023-11-26T01:39:47.845Z,10.75
2023-11-26T01:42:16.576Z,9.00
2023-11-26T01:44:44.724Z,10.00
2023-11-26T01:47:13.496Z,10.50
2023-11-26T01:49:42.736Z,13.00
2023-11-26T01:52:15.043Z,10.75
2023-11-26T01:54:45.672Z,11.00
2023-11-26T01:57:17.207Z,12.75
2023-11-26T01:59:46.199Z,10.75
2023-11-26T02:02:14.909Z,11.00
2023-11-26T02:04:44.024Z,8.75
2023-11-26T02:07:13.501Z,10.00
2023-11-26T02:09:42.478Z,8.50
2023-11-26T02:12:12.347Z,10.75
2023-11-26T02:14:40.911Z,11.25
2023-11-26T02:17:09.518Z,10.00
2023-11-26T02:19:41.695Z,9.50
2023-11-26T02:22:10.897Z,10.00
2023-11-26T02:24:44.340Z,11.25
2023-11-26T02:27:13.365Z,9.75
2023-11-26T02:29:42.899Z,9.00
2023-11-26T02:32:11.829Z,9.25
2023-11-26T02:34:40.403Z,10.75
2023-11-26T02:37:09.133Z,9.75
2023-11-26T02:39:37.689Z,9.00
2023-11-26T02:42:06.520Z,9.75
2023-11-26T02:44:35.060Z,10.75
2023-11-26T02:47:03.664Z,9.00
2023-11-26T02:49:32.303Z,9.25
2023-11-26T02:52:01.164Z,9.00
2023-11-26T02:54:30.131Z,8.00
2023-11-26T02:56:58.787Z,10.00
2023-11-26T02:59:27.382Z,10.50
2023-11-26T03:02:02.535Z,9.50
2023-11-26T03:04:31.159Z,9.00
2023-11-26T03:07:00.792Z,8.75
2023-11-26T03:09:52.190Z,10.00
2023-11-26T03:12:38.894Z,9.75
2023-11-26T03:15:07.956Z,9.25
2023-11-26T03:17:36.541Z,10.00
2023-11-26T03:20:05.419Z,9.75
2023-11-26T03:22:34.500Z,10.00
2023-11-26T03:25:03.071Z,8.75
2023-11-26T03:27:31.637Z,10.75
2023-11-26T03:30:00.250Z,9.75
2023-11-26T03:32:31.765Z,9.25
2023-11-26T03:35:00.588Z,10.50
2023-11-26T03:37:29.200Z,8.50
2023-11-26T03:39:57.795Z,9.00
2023-11-26T03:42:29.301Z,11.00
2023-11-26T03:44:58.412Z,10.00
2023-11-26T03:47:27.072Z,8.75
2023-11-26T03:49:55.689Z,7.75
2023-11-26T03:52:25.746Z,9.50
2023-11-26T03:54:54.429Z,9.25
2023-11-26T03:57:23.055Z,9.00
2023-11-26T03:59:51.812Z,9.25
2023-11-26T04:02:21.067Z,10.00
2023-11-26T04:04:49.741Z,6.50
2023-11-26T04:07:18.269Z,8.75
2023-11-26T04:09:48.094Z,8.50
2023-11-26T04:12:16.781Z,7.75
2023-11-26T04:14:59.410Z,8.25
2023-11-26T04:17:28.927Z,7.25
2023-11-26T04:19:57.906Z,8.75
2023-11-26T04:22:29.885Z,8.00
2023-11-26T04:24:58.440Z,9.25
2023-11-26T04:27:28.135Z,7.00
2023-11-26T04:29:56.748Z,6.00
2023-11-26T04:32:25.356Z,8.00
2023-11-26T04:34:53.998Z,7.00
2023-11-26T04:37:22.873Z,9.00
2023-11-26T04:39:51.720Z,8.00
2023-11-26T04:42:20.413Z,6.00
2023-11-26T04:44:48.931Z,6.50
2023-11-26T04:47:17.576Z,7.50
2023-11-26T04:49:46.409Z,6.00
2023-11-26T04:52:15.272Z,7.25
2023-11-26T04:54:43.849Z,7.00
2023-11-26T04:57:12.843Z,7.00
2023-11-26T04:59:41.611Z,5.25
2023-11-26T05:02:12.567Z,6.25
2023-11-26T05:04:41.870Z,6.50
2023-11-26T05:07:10.672Z,6.00
2023-11-26T05:09:39.437Z,7.00
2023-11-26T05:12:09.429Z,6.25
2023-11-26T05:14:38.404Z,6.25
2023-11-26T05:17:07.185Z,6.50
2023-11-26T05:19:35.746Z,7.25
2023-11-26T05:22:05.368Z,6.50
2023-11-26T05:24:34.023Z,5.75
2023-11-26T05:27:03.150Z,5.00
2023-11-26T05:29:31.801Z,4.00
2023-11-26T05:32:00.707Z,4.75
2023-11-26T05:34:29.309Z,5.25
2023-11-26T05:36:57.941Z,5.75
2023-11-26T05:39:26.897Z,5.75
2023-11-26T05:41:55.470Z,4.25
2023-11-26T05:44:24.023Z,4.50
2023-11-26T05:46:52.590Z,4.00
2023-11-26T05:49:21.138Z,4.00
2023-11-26T05:51:49.732Z,4.00
2023-11-26T05:54:20.508Z,4.50
2023-11-26T05:56:49.069Z,3.00
2023-11-26T05:59:17.794Z,4.00
2023-11-26T06:01:46.805Z,4.00
2023-11-26T06:04:15.516Z,4.25
2023-11-26T06:06:46.044Z,5.00
2023-11-26T06:09:15.114Z,4.75
2023-11-26T06:11:43.660Z,5.00
2023-11-26T06:14:12.220Z,5.00
2023-11-26T06:16:44.296Z,5.00
2023-11-26T06:19:13.635Z,4.00
2023-11-26T06:21:42.235Z,4.00
2023-11-26T06:24:11.624Z,7.00
2023-11-26T06:26:40.457Z,4.50
2023-11-26T06:29:09.933Z,7.00
2023-11-26T06:31:38.445Z,4.00
2023-11-26T06:34:07.268Z,6.00
2023-11-26T06:36:35.779Z,4.00
2023-11-26T06:39:08.458Z,4.50
2023-11-26T06:41:41.165Z,4.25
2023-11-26T06:44:09.858Z,5.00
2023-11-26T06:46:38.944Z,4.00
2023-11-26T06:49:07.581Z,5.75
2023-11-26T06:51:36.329Z,3.00
2023-11-26T06:54:04.742Z,4.00
2023-11-26T06:56:33.086Z,4.25
2023-11-26T06:59:01.727Z,3.00
2023-11-26T07:01:30.272Z,3.50
2023-11-26T07:03:59.346Z,4.50
2023-11-26T07:06:28.031Z,3.75
2023-11-26T07:08:56.631Z,3.00
2023-11-26T07:11:25.362Z,4.00
2023-11-26T07:13:54.632Z,3.00
2023-11-26T07:16:24.095Z,3.50
2023-11-26T07:18:53.192Z,3.75
2023-11-26T07:21:22.165Z,4.25
2023-11-26T07:23:50.753Z,4.00
2023-11-26T07:26:23.086Z,4.00
2023-11-26T07:28:54.706Z,3.75
2023-11-26T07:31:29.746Z,3.00
2023-11-26T07:33:58.828Z,3.50
2023-11-26T07:36:28.034Z,3.50
2023-11-26T07:39:00.910Z,4.75
2023-11-26T07:41:29.874Z,4.00
2023-11-26T07:43:59.660Z,4.75
2023-11-26T07:46:28.203Z,3.50
2023-11-26T07:48:57.219Z,2.75
2023-11-26T07:51:25.652Z,3.25
2023-11-26T07:53:54.318Z,4.00
2023-11-26T07:56:24.061Z,4.75
2023-11-26T07:58:52.577Z,3.25
2023-11-26T08:01:24.569Z,3.00
2023-11-26T08:03:55.641Z,2.00
2023-11-26T08:06:24.096Z,3.00
2023-11-26T08:08:52.486Z,3.00
2023-11-26T08:11:22.028Z,2.75
2023-11-26T08:13:50.553Z,3.50
2023-11-26T08:16:19.832Z,6.00
2023-11-26T08:18:48.437Z,9.25
2023-11-26T08:21:18.191Z,10.50
2023-11-26T08:23:46.843Z,10.25
2023-11-26T08:26:17.646Z,11.50
2023-11-26T08:28:46.289Z,11.75
2023-11-26T08:31:14.849Z,11.75
2023-11-26T08:33:47.168Z,11.25
2023-11-26T08:36:20.514Z,12.50
2023-11-26T08:38:50.388Z,8.75
2023-11-26T08:41:27.225Z,8.00
2023-11-26T08:43:59.558Z,5.75
2023-11-26T08:46:29.195Z,3.50
2023-11-26T08:48:58.969Z,2.00
2023-11-26T08:51:28.875Z,3.00
2023-11-26T08:53:58.258Z,1.75
2023-11-26T08:56:28.032Z,2.25
2023-11-26T08:58:56.705Z,2.00
2023-11-26T09:01:25.366Z,3.00
2023-11-26T09:03:53.975Z,2.00
2023-11-26T09:06:22.684Z,2.00
2023-11-26T09:08:53.835Z,1.00
2023-11-26T09:11:22.472Z,2.25
2023-11-26T09:13:53.707Z,2.00
2023-11-26T09:16:22.426Z,2.25
2023-11-26T09:18:51.234Z,3.00
2023-11-26T09:21:20.679Z,4.00
2023-11-26T09:23:49.260Z,3.50
2023-11-26T09:26:17.699Z,2.00
2023-11-26T09:28:51.296Z,3.00
2023-11-26T09:31:25.296Z,2.00
2023-11-26T09:33:53.831Z,3.50
2023-11-26T09:36:22.303Z,4.00
2023-11-26T09:38:51.144Z,5.75
2023-11-26T09:41:23.546Z,4.00
2023-11-26T09:43:52.632Z,5.00
2023-11-26T09:46:24.888Z,6.25
2023-11-26T09:48:53.617Z,7.00
2023-11-26T09:51:28.479Z,7.00
2023-11-26T09:53:57.062Z,5.00
2023-11-26T09:56:26.664Z,7.75
2023-11-26T09:58:54.970Z,6.75
2023-11-26T10:01:23.653Z,5.00
2023-11-26T10:04:06.935Z,6.75
2023-11-26T10:06:35.629Z,7.00
2023-11-26T10:09:21.131Z,5.00
2023-11-26T10:11:50.631Z,5.50
2023-11-26T10:14:23.778Z,6.50
2023-11-26T10:16:52.164Z,4.00
2023-11-26T10:19:29.673Z,4.75
2023-11-26T10:22:00.829Z,4.00
2023-11-26T10:24:31.254Z,3.25
2023-11-26T10:27:03.217Z,4.00
2023-11-26T10:29:34.932Z,4.00
2023-11-26T10:32:08.506Z,3.50
2023-11-26T10:34:38.429Z,3.50
2023-11-26T10:37:25.301Z,4.00
2023-11-26T10:39:55.110Z,4.50
2023-11-26T10:42:24.323Z,4.50
2023-11-26T10:44:54.256Z,3.75
2023-11-26T10:47:26.379Z,2.50
2023-11-26T10:49:58.111Z,3.50
2023-11-26T10:52:52.556Z,3.00
2023-11-26T10:55:29.387Z,3.00
2023-11-26T10:58:08.380Z,3.25
2023-11-26T11:00:39.417Z,3.00
2023-11-26T11:03:09.345Z,5.00
2023-11-26T11:05:38.985Z,3.25
2023-11-26T11:08:08.439Z,5.25
2023-11-26T11:10:54.631Z,7.75
2023-11-26T11:13:25.061Z,6.00
2023-11-26T11:15:54.606Z,5.00
2023-11-26T11:18:29.649Z,3.25
2023-11-26T11:21:14.944Z,4.00
2023-11-26T11:23:48.910Z,4.00
2023-11-26T11:26:19.492Z,3.00
2023-11-26T11:29:02.375Z,3.00
2023-11-26T11:32:00.849Z,5.50
2023-11-26T11:34:29.686Z,6.00
2023-11-26T11:37:00.364Z,5.75
2023-11-26T11:39:51.795Z,4.00
2023-11-26T11:42:29.263Z,4.25
2023-11-26T11:44:58.290Z,5.75
2023-11-26T11:47:44.686Z,4.25
2023-11-26T11:50:16.605Z,5.00
2023-11-26T11:52:47.103Z,6.25
2023-11-26T11:55:31.222Z,4.75
2023-11-26T11:58:13.820Z,4.00
2023-11-26T12:00:45.798Z,5.00
2023-11-26T12:03:19.953Z,5.50
2023-11-26T12:05:49.010Z,4.00
2023-11-26T12:08:17.847Z,5.50
2023-11-26T12:10:46.514Z,5.00
2023-11-26T12:13:15.077Z,4.00
2023-11-26T12:15:57.019Z,5.00
2023-11-26T12:18:25.868Z,5.00
2023-11-26T12:20:54.495Z,6.00
2023-11-26T12:23:36.658Z,6.25
2023-11-26T12:26:06.013Z,6.25
2023-11-26T12:28:44.828Z,5.25
2023-11-26T12:31:14.602Z,5.75
2023-11-26T12:33:47.996Z,5.50
2023-11-26T12:36:17.977Z,6.00
2023-11-26T12:38:47.010Z,6.00
2023-11-26T12:41:15.872Z,7.25
2023-11-26T12:43:45.066Z,6.00
2023-11-26T12:46:19.178Z,6.00
2023-11-26T12:48:47.799Z,5.75
2023-11-26T12:51:19.974Z,8.00
2023-11-26T12:53:58.392Z,7.00
2023-11-26T12:56:28.936Z,6.25
2023-11-26T12:59:04.845Z,6.25
2023-11-26T13:01:37.076Z,5.25
2023-11-26T13:04:09.187Z,5.75
2023-11-26T13:06:58.535Z,5.25
2023-11-26T13:09:27.297Z,5.50
2023-11-26T13:12:03.678Z,7.75
2023-11-26T13:14:32.292Z,7.00
2023-11-26T13:17:01.134Z,6.00
2023-11-26T13:19:29.817Z,7.00
2023-11-26T13:21:58.379Z,6.75
2023-11-26T13:24:27.061Z,5.50
2023-11-26T13:26:55.562Z,6.25
2023-11-26T13:29:24.130Z,7.50
2023-11-26T13:31:52.766Z,5.50
2023-11-26T13:34:21.632Z,7.00
2023-11-26T13:36:52.338Z,6.00
2023-11-26T13:39:23.872Z,6.75
2023-11-26T13:41:52.512Z,5.50
2023-11-26T13:44:22.555Z,6.75
2023-11-26T13:46:51.775Z,6.50
2023-11-26T13:49:21.211Z,7.25
2023-11-26T13:51:49.873Z,8.00
2023-11-26T13:54:18.478Z,7.25
2023-11-26T13:56:47.118Z,8.00
2023-11-26T13:59:15.704Z,7.50
2023-11-26T14:01:45.742Z,8.00
2023-11-26T14:04:14.493Z,7.50
2023-11-26T14:06:43.272Z,8.00
2023-11-26T14:09:13.904Z,7.50
2023-11-26T14:11:44.583Z,9.00
2023-11-26T14:14:15.840Z,9.00
2023-11-26T14:16:45.092Z,6.00
2023-11-26T14:19:14.872Z,9.25
2023-11-26T14:21:43.542Z,9.00
2023-11-26T14:24:12.247Z,8.25
2023-11-26T14:26:40.852Z,7.25
2023-11-26T14:29:09.458Z,7.50
2023-11-26T14:31:38.007Z,8.00
2023-11-26T14:34:06.591Z,7.25
2023-11-26T14:36:35.140Z,8.75
2023-11-26T14:39:03.813Z,8.75
2023-11-26T14:41:32.332Z,8.00
2023-11-26T14:44:00.903Z,7.25
2023-11-26T14:46:29.528Z,6.75
2023-11-26T14:48:59.662Z,8.75
2023-11-26T14:51:28.263Z,6.25
2023-11-26T14:54:00.848Z,9.00
2023-11-26T14:56:29.497Z,7.00
2023-11-26T14:58:57.990Z,7.00
2023-11-26T15:01:26.685Z,7.50
2023-11-26T15:03:55.375Z,7.00
2023-11-26T15:06:24.049Z,6.50
2023-11-26T15:08:52.582Z,6.75
2023-11-26T15:11:21.180Z,7.50
2023-11-26T15:13:49.815Z,7.50
2023-11-26T15:16:18.385Z,8.50
2023-11-26T15:18:46.958Z,7.00
2023-11-26T15:21:15.549Z,6.25
2023-11-26T15:23:44.134Z,6.75
2023-11-26T15:26:24.100Z,7.50
2023-11-26T15:28:52.969Z,6.75
2023-11-26T15:31:22.637Z,7.00
2023-11-26T15:33:51.312Z,6.00
2023-11-26T15:36:24.081Z,6.75
2023-11-26T15:38:56.186Z,6.25
2023-11-26T15:41:25.841Z,7.50
2023-11-26T15:43:55.243Z,6.00
2023-11-26T15:46:28.069Z,4.00
2023-11-26T15:48:58.104Z,6.75
2023-11-26T15:51:26.712Z,6.25
2023-11-26T15:54:02.639Z,6.75
2023-11-26T15:56:32.900Z,7.00
2023-11-26T15:59:01.464Z,7.00
2023-11-26T16:01:30.890Z,7.00
2023-11-26T16:04:00.065Z,6.50
2023-11-26T16:06:32.443Z,5.75
2023-11-26T16:09:01.634Z,5.50
2023-11-26T16:11:32.804Z,7.00
2023-11-26T16:14:02.408Z,5.50
2023-11-26T16:16:31.048Z,5.75
2023-11-26T16:18:59.767Z,6.25
2023-11-26T16:21:31.553Z,6.00
2023-11-26T16:24:01.377Z,5.75
2023-11-26T16:26:30.448Z,6.25
2023-11-26T16:28:59.031Z,6.00
2023-11-26T16:31:27.789Z,6.00
2023-11-26T16:33:56.547Z,5.25
2023-11-26T16:36:26.369Z,5.00
2023-11-26T16:38:54.985Z,6.00
2023-11-26T16:41:23.605Z,4.50
2023-11-26T16:43:52.311Z,5.25
2023-11-26T16:46:20.848Z,5.50
2023-11-26T16:48:49.549Z,6.50
2023-11-26T16:51:18.133Z,6.75
2023-11-26T16:53:47.315Z,4.75
2023-11-26T16:56:16.689Z,6.00
2023-11-26T16:58:45.289Z,4.25
2023-11-26T17:01:14.060Z,5.75
2023-11-26T17:03:43.072Z,4.75
2023-11-26T17:06:11.661Z,5.75
2023-11-26T17:08:40.196Z,5.00
2023-11-26T17:11:10.583Z,6.25
2023-11-26T17:13:39.216Z,6.50
2023-11-26T17:16:08.323Z,5.00
2023-11-26T17:18:37.089Z,6.00
2023-11-26T17:21:05.956Z,5.00
2023-11-26T17:23:34.552Z,6.50
2023-11-26T17:26:03.170Z,7.25
2023-11-26T17:28:32.250Z,5.50
2023-11-26T17:31:00.892Z,7.00
2023-11-26T17:33:29.684Z,6.00
2023-11-26T17:35:58.798Z,5.50
2023-11-26T17:38:27.437Z,6.50
2023-11-26T17:40:56.006Z,4.25
2023-11-26T17:43:26.600Z,5.50
2023-11-26T17:45:56.972Z,5.75
2023-11-26T17:48:25.532Z,5.75
2023-11-26T17:50:54.253Z,5.00
2023-11-26T17:53:23.470Z,3.50
2023-11-26T17:55:52.059Z,6.00
2023-11-26T17:58:20.754Z,5.75
2023-11-26T18:00:50.503Z,4.00
2023-11-26T18:03:20.232Z,4.50
2023-11-26T18:05:50.733Z,4.25
2023-11-26T18:08:19.483Z,4.00
2023-11-26T18:10:48.588Z,4.25
2023-11-26T18:13:17.168Z,3.00
2023-11-26T18:15:46.486Z,4.25
2023-11-26T18:18:15.186Z,4.00
2023-11-26T18:20:43.748Z,3.00
2023-11-26T18:23:12.348Z,1.25
2023-11-26T18:25:40.925Z,2.00
2023-11-26T18:28:09.467Z,1.00
2023-11-26T18:30:39.218Z,1.00
2023-11-26T18:33:07.991Z,0.00
2023-11-26T18:35:36.544Z,0.00
2023-11-26T18:38:05.088Z,1.00
2023-11-26T18:40:33.652Z,0.25
2023-11-26T18:43:02.250Z,1.00
2023-11-26T18:45:30.841Z,0.00
2023-11-26T18:48:00.458Z,0.00
2023-11-26T18:50:29.121Z,1.00
2023-11-26T18:52:57.672Z,0.00
2023-11-26T18:55:26.395Z,0.75
2023-11-26T18:57:55.051Z,0.25
2023-11-26T19:00:23.743Z,1.00
2023-11-26T19:02:52.458Z,0.00
2023-11-26T19:05:21.055Z,0.00
2023-11-26T19:07:49.651Z,0.00
2023-11-26T19:10:20.139Z,0.00
2023-11-26T19:12:48.820Z,0.00
2023-11-26T19:15:18.027Z,0.75
2023-11-26T19:17:46.585Z,0.25
2023-11-26T19:20:15.378Z,0.00
2023-11-26T19:22:44.101Z,0.00
2023-11-26T19:25:12.970Z,1.00
2023-11-26T19:27:41.829Z,0.50
2023-11-26T19:30:10.723Z,0.00
2023-11-26T19:32:39.353Z,0.00
2023-11-26T19:35:08.133Z,0.00
2023-11-26T19:37:36.775Z,1.00
2023-11-26T19:40:05.581Z,1.00
2023-11-26T19:42:34.248Z,1.00
2023-11-26T19:45:03.285Z,0.25
2023-11-26T19:47:31.868Z,1.00
2023-11-26T19:50:00.413Z,0.50
2023-11-26T19:52:29.011Z,0.50
2023-11-26T19:54:57.620Z,1.00
2023-11-26T19:57:26.171Z,1.00
2023-11-26T19:59:54.841Z,1.75
2023-11-26T20:02:23.508Z,0.00
2023-11-26T20:04:52.323Z,1.00
2023-11-26T20:07:20.978Z,0.00
2023-11-26T20:09:49.530Z,0.00
2023-11-26T20:12:18.808Z,0.00
2023-11-26T20:14:47.548Z,0.00
2023-11-26T20:17:16.063Z,0.00
2023-11-26T20:19:44.664Z,0.00
2023-11-26T20:22:13.434Z,0.00
2023-11-26T20:24:41.995Z,0.00
2023-11-26T20:27:10.482Z,0.00
2023-11-26T20:29:39.517Z,0.00
2023-11-26T20:32:08.548Z,0.25
2023-11-26T20:34:37.210Z,0.00
2023-11-26T20:37:06.484Z,0.00
2023-11-26T20:39:35.414Z,0.00
2023-11-26T20:42:04.845Z,0.00
2023-11-26T20:44:33.435Z,0.00
2023-11-26T20:47:05.481Z,0.00
2023-11-26T20:49:37.184Z,0.00
2023-11-26T20:52:05.962Z,0.00
2023-11-26T20:54:35.533Z,0.00
2023-11-26T20:57:05.453Z,0.00
2023-11-26T20:59:36.145Z,0.00
2023-11-26T21:02:04.986Z,0.00
2023-11-26T21:04:34.701Z,0.00
2023-11-26T21:07:03.362Z,0.00
2023-11-26T21:09:32.078Z,0.00
2023-11-26T21:12:00.779Z,0.00
2023-11-26T21:14:29.361Z,0.00
2023-11-26T21:16:59.489Z,0.00
2023-11-26T21:19:28.480Z,0.00
2023-11-26T21:21:57.055Z,0.00
2023-11-26T21:24:25.640Z,0.00
2023-11-26T21:26:54.744Z,0.00
2023-11-26T21:29:23.409Z,0.00
2023-11-26T21:31:52.054Z,0.00
2023-11-26T21:34:20.730Z,0.00
2023-11-26T21:36:49.349Z,0.00
2023-11-26T21:39:18.083Z,0.00
2023-11-26T21:41:46.933Z,0.00
2023-11-26T21:44:15.787Z,0.00
2023-11-26T21:46:44.623Z,0.00
2023-11-26T21:49:13.390Z,0.50
2023-11-26T21:51:43.799Z,0.00
2023-11-26T21:54:12.971Z,0.00
2023-11-26T21:56:41.530Z,0.00
2023-11-26T21:59:10.227Z,0.00
2023-11-26T22:01:39.478Z,0.50
2023-11-26T22:04:08.212Z,0.00
2023-11-26T22:06:37.007Z,0.00
2023-11-26T22:09:06.492Z,0.00
2023-11-26T22:11:35.103Z,0.50
2023-11-26T22:14:03.679Z,1.00
2023-11-26T22:16:32.333Z,1.00
2023-11-26T22:19:03.209Z,0.00
2023-11-26T22:21:33.943Z,0.00
2023-11-26T22:24:04.954Z,0.00
2023-11-26T22:26:40.520Z,1.00
2023-11-26T22:29:09.145Z,0.00
2023-11-26T22:31:38.174Z,1.00
2023-11-26T22:34:06.978Z,0.00
2023-11-26T22:36:35.940Z,0.00
2023-11-26T22:39:05.067Z,0.25
2023-11-26T22:41:33.927Z,0.00
2023-11-26T22:44:02.596Z,0.00
2023-11-26T22:46:32.628Z,0.00
2023-11-26T22:49:01.525Z,1.00
2023-11-26T22:51:30.355Z,2.00
2023-11-26T22:53:58.949Z,2.25
2023-11-26T22:56:28.115Z,2.00
2023-11-26T22:58:56.907Z,1.00
2023-11-26T23:01:26.127Z,2.00
2023-11-26T23:03:55.502Z,3.00
2023-11-26T23:06:24.282Z,5.00
2023-11-26T23:08:52.948Z,7.00
2023-11-26T23:11:21.635Z,5.50
2023-11-26T23:13:53.178Z,5.25
2023-11-26T23:16:23.393Z,5.25
2023-11-26T23:18:52.593Z,5.25
2023-11-26T23:21:22.040Z,4.00
2023-11-26T23:23:53.140Z,3.25
2023-11-26T23:26:23.192Z,3.75
2023-11-26T23:28:52.657Z,3.00
2023-11-26T23:31:24.546Z,2.50
2023-11-26T23:33:53.250Z,1.50
2023-11-26T23:36:21.871Z,1.75
2023-11-26T23:38:50.477Z,2.50
2023-11-26T23:41:19.253Z,2.00
2023-11-26T23:43:47.932Z,1.00
2023-11-26T23:46:16.602Z,3.75
2023-11-26T23:48:45.254Z,2.75
2023-11-26T23:51:13.895Z,2.00
2023-11-26T23:53:42.469Z,2.00
2023-11-26T23:56:12.002Z,1.25
2023-11-26T23:58:40.786Z,2.25
